Lafayette, IN (47902)

10:36 AM EDT on June 30, 2015 (GMT -0400)
APRSWXNET | | Change Station
CLOSE
Current Station
Personal Weather Station
Location: Lafayette, IN
Elevation: 617 ft
Nearby Weather Stations
Active Advisory: Flood Warning

Elev 617 ft 40.46 °N, 86.83 °W | Updated 23 minutes ago

Mostly Cloudy
Mostly Cloudy
69 °F
Feels Like 69 °F
N
6
Wind Variable Wind from WNW
Gusts 9.0 mph

Today
High -- | Low -- °F
--% Chance of Precip.
Yesterday
High -- | Low -- °F
Precip. -- in
6:20 AM 9:21 PM
Waxing Gibbous, 97% visible
Pressure 29.83 in
Visibility 8.0 miles
Clouds Scattered Clouds 1300 ft
Dew Point 69 °F
Humidity 99%
Rainfall in
Snow Depth Not available.
UV 4 out of 12
Pollen 3.60 out of 12
Air Quality Not available.
Flu Activity No Activity
METAR KLAF 301354Z COR 25006KT 8SM SCT013 20/18 A2984 RMK AO2 SLP101 T02000178

More Conditions Fewer Conditions

Pressure 29.83 in
Visibility 8.0 miles
Clouds Scattered Clouds 1300 ft
Dew Point 69 °F
Humidity 99%
Rainfall in
Snow Depth Not available.
UV 4 out of 12
Pollen 3.60 out of 12
Air Quality Not available.
Flu Activity No Activity
METAR KLAF 301354Z COR 25006KT 8SM SCT013 20/18 A2984 RMK AO2 SLP101 T02000178

More Conditions Fewer Conditions

10-Day Weather Forecast

×

Almanac

Astronomy

Jun. 30, 2015 Rise Set
Actual Time
Civil Twilight
Nautical Twilight
Astronomical Twilight
Moon
Length of Visible Light
Length of Day
Tomorrow will be .
, % of the Moon is Illuminated

Today's Extremes

State Highs State Lows

Community

WunderPhotos

Upload Photos

1,834,008 photos uploaded!

WunderBlogs® & News

Nearby

Air Quality

  Air Quality AQ Index Pollutant
Not available.

Snow Depth

Station Depth Elevation

Earthquake Activity

City Distance Mag. Time & Date
Minimum magnitude displayed is 2.5.

Coastal Water Temperatures

Place Temperature

Stations

Nearby Weather Stations

Station Location Temp. Windchill Dew Point Humidity Wind Precip. Elev Updated Type
                   
Flood Warning
Statement as of 1:03 PM EDT on June 29, 2015

The Flood Warning continues for
the Wabash River at Lafayette.
* Until further notice.
* At 12:15 PM Monday the stage was 22.2 feet.
* Flood stage is 11.0 feet.
* Moderate flooding is occurring and moderate flooding is forecast.
* Forecast... the river will continue to fall to a stage of 19.9 feet
by tomorrow morning.
* At 22.0 feet... extensive flooding is in progress. Flood waters
blocks direct access to Wabash valley hospital. During
agricultural season extensive crop damage occurs. Roads that flood
include... N river Rd... sr 225 south of battleground... stair Road...
Barton beach Rd... division Rd and CR 700 W at the Granville bridge
public access site and CR 950 W. Pretty Prairie Rd near moots creek
and lowest portion of Goldsberry Rd likely flood. Basement
flooding along N River Road... N 9th street and Barton beach Rd
begins.


Lat... Lon 4056 8673 4048 8688 4040 8709 4033 8709
      4040 8688 4054 8670